createdAt,value
2023-03-29T00:02:02.522Z,3.57
2023-03-29T00:04:53.358Z,3.50
2023-03-29T00:07:42.477Z,5.57
2023-03-29T00:10:32.207Z,4.60
2023-03-29T00:13:20.838Z,4.30
2023-03-29T00:16:10.024Z,3.77
2023-03-29T00:18:59.878Z,3.90
2023-03-29T00:21:48.301Z,3.77
2023-03-29T00:24:36.830Z,3.87
2023-03-29T00:27:25.369Z,3.20
2023-03-29T00:30:14.961Z,3.83
2023-03-29T00:33:03.845Z,5.13
2023-03-29T00:35:54.413Z,3.53
2023-03-29T00:38:43.078Z,3.23
2023-03-29T00:41:31.587Z,3.70
2023-03-29T00:44:57.437Z,6.13
2023-03-29T00:47:47.812Z,6.03
2023-03-29T00:50:39.732Z,3.23
2023-03-29T00:53:33.431Z,3.50
2023-03-29T00:56:24.957Z,4.70
2023-03-29T00:59:16.169Z,3.77
2023-03-29T01:02:05.775Z,3.90
2023-03-29T01:04:58.279Z,6.60
2023-03-29T01:07:50.382Z,3.47
2023-03-29T01:10:42.671Z,3.17
2023-03-29T01:13:37.067Z,4.57
2023-03-29T01:16:25.932Z,3.10
2023-03-29T01:19:19.024Z,2.70
2023-03-29T01:22:14.766Z,2.93
2023-03-29T01:25:11.190Z,2.97
2023-03-29T01:28:04.849Z,3.53
2023-03-29T01:30:55.923Z,3.57
2023-03-29T01:33:47.146Z,3.40
2023-03-29T01:36:40.469Z,2.97
2023-03-29T01:39:29.040Z,4.00
2023-03-29T01:42:27.328Z,2.50
2023-03-29T01:45:22.831Z,3.47
2023-03-29T01:48:16.508Z,3.33
2023-03-29T01:51:08.222Z,2.97
2023-03-29T01:54:00.362Z,2.50
2023-03-29T01:56:50.035Z,3.50
2023-03-29T01:59:42.074Z,3.77
2023-03-29T02:02:32.311Z,3.70
2023-03-29T02:05:22.374Z,3.57
2023-03-29T02:08:13.392Z,3.03
2023-03-29T02:11:02.533Z,2.70
2023-03-29T02:13:51.146Z,3.50
2023-03-29T02:16:40.368Z,3.83
2023-03-29T02:19:30.208Z,3.00
2023-03-29T02:22:23.117Z,3.80
2023-03-29T02:25:12.883Z,2.77
2023-03-29T02:28:01.797Z,3.10
2023-03-29T02:30:54.624Z,3.20
2023-03-29T02:33:46.596Z,7.83
2023-03-29T02:36:41.530Z,3.17
2023-03-29T02:39:31.734Z,3.60
2023-03-29T02:42:20.782Z,2.83
2023-03-29T02:45:10.699Z,2.87
2023-03-29T02:48:01.393Z,3.50
2023-03-29T02:50:52.198Z,3.40
2023-03-29T02:53:44.217Z,4.30
2023-03-29T02:56:43.217Z,3.03
2023-03-29T02:59:31.835Z,4.27
2023-03-29T03:02:20.677Z,3.43
2023-03-29T03:05:09.986Z,3.47
2023-03-29T03:07:59.308Z,3.07
2023-03-29T03:10:49.112Z,5.30
2023-03-29T03:13:37.666Z,3.07
2023-03-29T03:16:26.402Z,4.03
2023-03-29T03:19:15.295Z,3.73
2023-03-29T03:22:06.062Z,3.20
2023-03-29T03:24:55.888Z,3.43
2023-03-29T03:27:45.970Z,3.63
2023-03-29T03:30:34.883Z,3.50
2023-03-29T03:33:24.052Z,3.50
2023-03-29T03:36:12.610Z,3.50
2023-03-29T03:39:01.565Z,4.33
2023-03-29T03:41:50.028Z,3.30
2023-03-29T03:44:40.084Z,6.70
2023-03-29T03:47:29.216Z,6.20
2023-03-29T03:50:18.454Z,3.63
2023-03-29T03:53:07.114Z,3.33
2023-03-29T03:55:56.801Z,3.67
2023-03-29T03:58:45.729Z,4.50
2023-03-29T04:01:37.657Z,6.13
2023-03-29T04:04:26.743Z,5.33
2023-03-29T04:07:17.778Z,3.40
2023-03-29T04:10:08.930Z,3.97
2023-03-29T04:12:57.376Z,3.63
2023-03-29T04:15:46.097Z,4.27
2023-03-29T04:18:36.218Z,3.87
2023-03-29T04:21:24.966Z,4.93
2023-03-29T04:24:13.548Z,4.30
2023-03-29T04:27:02.002Z,4.13
2023-03-29T04:29:50.466Z,6.07
2023-03-29T04:32:39.132Z,4.33
2023-03-29T04:35:28.991Z,4.73
2023-03-29T04:38:17.517Z,4.70
2023-03-29T04:41:06.431Z,5.43
2023-03-29T04:43:56.027Z,4.20
2023-03-29T04:46:44.601Z,4.50
2023-03-29T04:49:33.526Z,4.13
2023-03-29T04:52:24.610Z,3.90
2023-03-29T04:55:13.233Z,4.33
2023-03-29T04:58:02.718Z,4.20
2023-03-29T05:00:51.527Z,4.50
2023-03-29T05:03:40.209Z,3.90
2023-03-29T05:06:29.130Z,4.03
2023-03-29T05:09:19.537Z,4.73
2023-03-29T05:12:08.389Z,5.63
2023-03-29T05:14:56.842Z,5.07
2023-03-29T05:17:45.355Z,5.07
2023-03-29T05:20:33.825Z,5.30
2023-03-29T05:23:22.570Z,5.03
2023-03-29T05:26:15.217Z,6.70
2023-03-29T05:29:04.344Z,5.17
2023-03-29T05:31:53.274Z,4.70
2023-03-29T05:34:42.174Z,5.10
2023-03-29T05:37:31.739Z,5.63
2023-03-29T05:40:20.500Z,5.10
2023-03-29T05:43:10.592Z,5.50
2023-03-29T05:45:59.262Z,4.80
2023-03-29T05:48:47.769Z,4.80
2023-03-29T05:51:36.328Z,5.20
2023-03-29T05:54:24.993Z,8.10
2023-03-29T05:57:13.469Z,5.50
2023-03-29T06:00:06.034Z,5.80
2023-03-29T06:02:59.295Z,8.00
2023-03-29T06:05:59.637Z,4.83
2023-03-29T06:08:48.759Z,5.83
2023-03-29T06:11:37.532Z,6.30
2023-03-29T06:14:27.158Z,4.60
2023-03-29T06:17:17.487Z,6.40
2023-03-29T06:20:10.752Z,4.77
2023-03-29T06:22:59.406Z,5.30
2023-03-29T06:25:48.730Z,5.70
2023-03-29T06:28:37.521Z,4.67
2023-03-29T06:31:26.240Z,5.00
2023-03-29T06:34:17.694Z,5.47
2023-03-29T06:37:06.812Z,5.87
2023-03-29T06:39:55.331Z,5.97
2023-03-29T06:42:45.015Z,5.90
2023-03-29T06:45:35.247Z,6.07
2023-03-29T06:48:23.966Z,5.43
2023-03-29T06:51:13.777Z,5.77
2023-03-29T06:54:02.267Z,6.13
2023-03-29T06:56:50.776Z,6.50
2023-03-29T06:59:39.356Z,8.00
2023-03-29T07:02:28.934Z,5.20
2023-03-29T07:05:17.609Z,6.13
2023-03-29T07:08:13.928Z,5.93
2023-03-29T07:11:03.527Z,5.93
2023-03-29T07:13:52.244Z,5.63
2023-03-29T07:16:41.121Z,6.50
2023-03-29T07:19:30.327Z,5.07
2023-03-29T07:22:19.368Z,5.90
2023-03-29T07:25:10.594Z,7.30
2023-03-29T07:27:59.070Z,6.90
2023-03-29T07:30:47.836Z,12.50
2023-03-29T07:33:36.405Z,6.57
2023-03-29T07:36:25.252Z,6.70
2023-03-29T07:39:15.401Z,7.67
2023-03-29T07:42:05.290Z,7.50
2023-03-29T07:44:54.253Z,6.60
2023-03-29T07:47:42.819Z,7.47
2023-03-29T07:50:32.541Z,8.20
2023-03-29T07:53:21.184Z,6.73
2023-03-29T07:56:10.178Z,6.90
2023-03-29T07:59:00.028Z,7.70
2023-03-29T08:01:48.928Z,9.80
2023-03-29T08:04:37.515Z,7.00
2023-03-29T08:07:33.857Z,7.63
2023-03-29T08:10:23.348Z,8.17
2023-03-29T08:13:12.420Z,10.80
2023-03-29T08:16:02.264Z,6.43
2023-03-29T08:18:51.145Z,8.80
2023-03-29T08:21:39.618Z,9.87
2023-03-29T08:24:28.282Z,7.10
2023-03-29T08:27:17.322Z,6.03
2023-03-29T08:30:07.877Z,6.70
2023-03-29T08:32:58.021Z,6.33
2023-03-29T08:35:46.906Z,6.60
2023-03-29T08:38:35.443Z,6.20
2023-03-29T08:41:33.122Z,7.07
2023-03-29T08:44:31.040Z,6.93
2023-03-29T08:47:22.768Z,6.03
2023-03-29T08:50:13.737Z,6.60
2023-03-29T08:53:05.952Z,6.40
2023-03-29T08:55:56.766Z,7.77
2023-03-29T08:58:46.546Z,6.40
2023-03-29T09:01:36.768Z,5.70
2023-03-29T09:04:28.202Z,5.60
2023-03-29T09:07:18.098Z,8.30
2023-03-29T09:10:07.088Z,9.30
2023-03-29T09:13:06.191Z,6.90
2023-03-29T09:16:00.566Z,5.50
2023-03-29T09:18:56.553Z,7.00
2023-03-29T09:21:47.512Z,5.10
2023-03-29T09:24:57.853Z,4.77
2023-03-29T09:27:49.950Z,5.80
2023-03-29T09:30:41.589Z,5.33
2023-03-29T09:33:32.620Z,7.00
2023-03-29T09:36:25.836Z,9.40
2023-03-29T09:39:16.249Z,4.57
2023-03-29T09:42:08.900Z,4.00
2023-03-29T09:45:01.996Z,4.63
2023-03-29T09:47:53.326Z,3.57
2023-03-29T09:50:43.767Z,7.37
2023-03-29T09:53:32.252Z,7.20
2023-03-29T09:56:21.486Z,3.90
2023-03-29T09:59:13.470Z,3.50
2023-03-29T10:02:08.647Z,3.27
2023-03-29T10:05:01.040Z,3.20
2023-03-29T10:07:52.932Z,3.50
2023-03-29T10:10:41.637Z,7.13
2023-03-29T10:13:31.652Z,4.97
2023-03-29T10:16:23.227Z,3.70
2023-03-29T10:19:18.440Z,4.77
2023-03-29T10:22:09.181Z,3.20
2023-03-29T10:24:58.188Z,5.10
2023-03-29T10:27:47.760Z,5.13
2023-03-29T10:30:38.610Z,5.60
2023-03-29T10:33:31.996Z,5.13
2023-03-29T10:36:20.829Z,4.90
2023-03-29T10:39:11.697Z,4.80
2023-03-29T10:42:00.593Z,6.37
2023-03-29T10:44:54.613Z,3.80
2023-03-29T10:47:45.993Z,2.70
2023-03-29T10:50:38.054Z,3.07
2023-03-29T10:53:28.483Z,3.27
2023-03-29T10:56:40.188Z,2.87
2023-03-29T10:59:30.234Z,3.93
2023-03-29T11:02:54.573Z,3.10
2023-03-29T11:05:49.142Z,3.47
2023-03-29T11:08:48.925Z,4.30
2023-03-29T11:12:15.159Z,2.80
2023-03-29T11:15:16.436Z,3.23
2023-03-29T11:18:30.312Z,3.97
2023-03-29T11:21:26.058Z,2.77
2023-03-29T11:24:46.824Z,3.20
2023-03-29T11:27:39.991Z,2.70
2023-03-29T11:30:32.095Z,4.20
2023-03-29T11:33:34.605Z,3.03
2023-03-29T11:36:26.881Z,3.23
2023-03-29T11:39:19.443Z,2.50
2023-03-29T11:42:12.752Z,4.03
2023-03-29T11:45:04.889Z,4.57
2023-03-29T11:47:54.082Z,2.97
2023-03-29T11:50:45.977Z,2.00
2023-03-29T11:53:42.662Z,4.30
2023-03-29T11:56:35.231Z,2.30
2023-03-29T11:59:27.421Z,3.20
2023-03-29T12:02:21.216Z,4.10
2023-03-29T12:05:13.219Z,5.43
2023-03-29T12:08:04.455Z,2.30
2023-03-29T12:10:59.215Z,2.37
2023-03-29T12:13:52.459Z,2.30
2023-03-29T12:16:43.931Z,3.23
2023-03-29T12:19:39.609Z,2.90
2023-03-29T12:22:29.574Z,3.10
2023-03-29T12:25:21.918Z,2.23
2023-03-29T12:28:27.992Z,2.23
2023-03-29T12:31:20.877Z,3.70
2023-03-29T12:34:21.959Z,8.63
2023-03-29T12:37:33.256Z,3.60
2023-03-29T12:40:24.163Z,2.87
2023-03-29T12:43:20.609Z,2.97
2023-03-29T12:46:10.351Z,3.00
2023-03-29T12:49:05.779Z,6.63
2023-03-29T12:51:55.584Z,2.67
2023-03-29T12:54:54.298Z,5.50
2023-03-29T12:57:45.658Z,3.57
2023-03-29T13:00:44.953Z,2.40
2023-03-29T13:03:42.432Z,4.57
2023-03-29T13:06:33.753Z,5.33
2023-03-29T13:09:23.910Z,3.93
2023-03-29T13:12:22.735Z,4.17
2023-03-29T13:15:23.824Z,2.50
2023-03-29T13:18:33.984Z,4.10
2023-03-29T13:21:26.285Z,5.07
2023-03-29T13:24:30.240Z,6.47
2023-03-29T13:27:26.179Z,3.10
2023-03-29T13:30:24.469Z,3.00
2023-03-29T13:33:26.424Z,3.20
2023-03-29T13:36:18.390Z,2.50
2023-03-29T13:39:07.827Z,4.43
2023-03-29T13:42:09.179Z,4.83
2023-03-29T13:45:06.781Z,2.30
2023-03-29T13:48:05.433Z,4.70
2023-03-29T13:50:57.593Z,2.50
2023-03-29T13:53:50.514Z,3.27
2023-03-29T13:56:43.222Z,5.33
2023-03-29T13:59:39.544Z,6.27
2023-03-29T14:02:39.374Z,4.27
2023-03-29T14:05:31.487Z,7.80
2023-03-29T14:08:25.428Z,4.53
2023-03-29T14:11:23.239Z,3.33
2023-03-29T14:14:12.634Z,2.53
2023-03-29T14:17:02.250Z,5.03
2023-03-29T14:19:51.413Z,2.80
2023-03-29T14:22:39.908Z,4.33
2023-03-29T14:25:30.547Z,4.03
2023-03-29T14:28:23.229Z,3.13
2023-03-29T14:31:18.599Z,3.30
2023-03-29T14:34:08.817Z,4.43
2023-03-29T14:36:58.454Z,3.03
2023-03-29T14:39:47.187Z,3.80
2023-03-29T14:42:38.721Z,4.17
2023-03-29T14:45:27.227Z,2.50
2023-03-29T14:48:16.446Z,2.83
2023-03-29T14:51:06.385Z,2.83
2023-03-29T14:53:54.896Z,3.87
2023-03-29T14:56:43.473Z,2.73
2023-03-29T14:59:38.086Z,4.20
2023-03-29T15:02:28.477Z,4.30
2023-03-29T15:05:26.245Z,3.27
2023-03-29T15:08:17.861Z,2.93
2023-03-29T15:11:13.993Z,4.43
2023-03-29T15:14:04.331Z,3.53
2023-03-29T15:16:57.150Z,3.63
2023-03-29T15:19:45.847Z,3.73
2023-03-29T15:22:35.199Z,3.23
2023-03-29T15:25:23.693Z,2.60
2023-03-29T15:28:26.091Z,3.13
2023-03-29T15:31:19.221Z,4.60
2023-03-29T15:34:12.793Z,3.97
2023-03-29T15:37:02.446Z,4.17
2023-03-29T15:39:51.017Z,4.50
2023-03-29T15:42:39.547Z,3.43
2023-03-29T15:45:28.026Z,2.47
2023-03-29T15:48:25.010Z,3.60
2023-03-29T15:51:14.948Z,3.30
2023-03-29T15:54:03.526Z,3.30
2023-03-29T15:56:54.319Z,2.97
2023-03-29T15:59:43.515Z,3.20
2023-03-29T16:02:32.185Z,2.87
2023-03-29T16:05:20.812Z,2.47
2023-03-29T16:08:12.158Z,4.70
2023-03-29T16:11:00.746Z,3.50
2023-03-29T16:13:49.392Z,3.00
2023-03-29T16:16:37.978Z,3.03
2023-03-29T16:19:27.202Z,3.90
2023-03-29T16:22:15.739Z,3.07
2023-03-29T16:25:08.352Z,3.47
2023-03-29T16:27:56.816Z,4.00
2023-03-29T16:30:45.411Z,7.20
2023-03-29T16:33:34.125Z,4.07
2023-03-29T16:36:22.691Z,5.33
2023-03-29T16:39:12.853Z,9.90
2023-03-29T16:42:02.695Z,3.47
2023-03-29T16:44:51.423Z,3.60
2023-03-29T16:47:40.217Z,3.73
2023-03-29T16:50:29.005Z,3.40
2023-03-29T16:53:18.286Z,4.07
2023-03-29T16:56:07.923Z,3.77
2023-03-29T16:58:57.761Z,5.90
2023-03-29T17:01:46.337Z,4.17
2023-03-29T17:04:34.989Z,8.37
2023-03-29T17:07:23.593Z,5.90
2023-03-29T17:10:12.917Z,5.63
2023-03-29T17:13:01.472Z,6.07
2023-03-29T17:15:52.351Z,6.13
2023-03-29T17:18:40.953Z,4.00
2023-03-29T17:21:29.745Z,6.80
2023-03-29T17:24:18.216Z,6.40
2023-03-29T17:27:07.046Z,5.53
2023-03-29T17:29:55.619Z,4.30
2023-03-29T17:32:45.748Z,5.03
2023-03-29T17:35:34.519Z,3.53
2023-03-29T17:38:23.057Z,4.07
2023-03-29T17:41:11.664Z,3.77
2023-03-29T17:44:01.151Z,5.90
2023-03-29T17:46:49.728Z,3.90
2023-03-29T17:49:39.545Z,7.20
2023-03-29T17:52:28.085Z,5.07
2023-03-29T17:55:16.934Z,8.10
2023-03-29T17:58:05.568Z,4.47
2023-03-29T18:00:54.124Z,6.73
2023-03-29T18:03:43.296Z,6.37
2023-03-29T18:06:33.101Z,7.30
2023-03-29T18:09:21.611Z,4.60
2023-03-29T18:12:10.172Z,7.60
2023-03-29T18:14:59.019Z,6.03
2023-03-29T18:17:47.850Z,11.43
2023-03-29T18:20:36.371Z,6.23
2023-03-29T18:23:26.227Z,6.57
2023-03-29T18:26:15.922Z,7.67
2023-03-29T18:29:04.546Z,9.33
2023-03-29T18:31:53.040Z,8.50
2023-03-29T18:34:41.845Z,14.33
2023-03-29T18:37:30.360Z,13.70
2023-03-29T18:40:24.616Z,14.30
2023-03-29T18:43:13.153Z,10.30
2023-03-29T18:46:02.134Z,7.70
2023-03-29T18:48:51.042Z,7.50
2023-03-29T18:51:39.661Z,8.23
2023-03-29T18:54:28.211Z,13.10
2023-03-29T18:57:18.001Z,11.10
2023-03-29T19:00:12.406Z,8.00
2023-03-29T19:14:39.133Z,7.87
2023-03-29T19:17:28.804Z,7.30
2023-03-29T19:20:17.618Z,9.17
2023-03-29T19:23:06.294Z,10.20
2023-03-29T19:25:55.289Z,7.37
2023-03-29T19:28:43.788Z,10.83
2023-03-29T19:31:37.702Z,10.77
2023-03-29T19:34:26.657Z,7.60
2023-03-29T19:37:16.890Z,9.77
2023-03-29T19:40:08.138Z,10.47
2023-03-29T19:42:56.626Z,7.77
2023-03-29T19:45:45.417Z,7.23
2023-03-29T19:48:35.319Z,8.80
2023-03-29T19:51:26.682Z,7.53
2023-03-29T19:54:17.264Z,8.40
2023-03-29T19:57:07.280Z,8.13
2023-03-29T19:59:55.831Z,7.70
2023-03-29T20:02:44.330Z,7.97
2023-03-29T20:05:35.898Z,9.03
2023-03-29T20:08:24.741Z,7.43
2023-03-29T20:11:14.087Z,10.47
2023-03-29T20:14:02.615Z,11.00
2023-03-29T20:16:52.289Z,9.93
2023-03-29T20:19:44.184Z,13.60
2023-03-29T20:22:34.054Z,8.73
2023-03-29T20:25:22.585Z,8.03
2023-03-29T20:28:12.851Z,10.67
2023-03-29T20:31:04.863Z,11.27
2023-03-29T20:33:53.705Z,12.00
2023-03-29T20:36:42.348Z,8.27
2023-03-29T20:39:32.361Z,8.83
2023-03-29T20:42:28.503Z,8.00
2023-03-29T20:45:19.317Z,8.40
2023-03-29T20:48:07.965Z,8.73
2023-03-29T20:50:57.691Z,8.20
2023-03-29T20:53:46.573Z,7.63
2023-03-29T20:56:38.564Z,10.27
2023-03-29T20:59:27.529Z,10.27
2023-03-29T21:02:18.844Z,9.70
2023-03-29T21:05:08.587Z,10.23
2023-03-29T21:07:57.535Z,8.67
2023-03-29T21:10:47.725Z,9.97
2023-03-29T21:13:37.560Z,9.47
2023-03-29T21:16:29.029Z,12.90
2023-03-29T21:19:19.571Z,9.40
2023-03-29T21:22:09.006Z,8.80
2023-03-29T21:24:57.438Z,6.00
2023-03-29T21:27:45.965Z,7.10
2023-03-29T21:30:35.991Z,7.60
2023-03-29T21:33:24.604Z,10.50
2023-03-29T21:36:13.102Z,7.00
2023-03-29T21:39:01.679Z,13.37
2023-03-29T21:41:52.278Z,8.03
2023-03-29T21:44:40.790Z,9.00
2023-03-29T21:47:31.007Z,7.97
2023-03-29T21:50:19.697Z,11.93
2023-03-29T21:53:08.489Z,12.27
2023-03-29T21:55:56.974Z,7.80
2023-03-29T21:58:45.553Z,11.80
2023-03-29T22:01:34.160Z,10.67
2023-03-29T22:04:35.780Z,8.80
2023-03-29T22:07:25.226Z,9.80
2023-03-29T22:10:13.983Z,10.60
2023-03-29T22:13:03.098Z,9.50
2023-03-29T22:15:59.139Z,9.10
2023-03-29T22:18:49.658Z,7.43
2023-03-29T22:21:39.816Z,11.60
2023-03-29T22:24:28.948Z,11.60
2023-03-29T22:27:17.401Z,8.27
2023-03-29T22:30:08.048Z,8.43
2023-03-29T22:32:56.576Z,10.20
2023-03-29T22:35:45.123Z,7.23
2023-03-29T22:38:35.007Z,7.57
2023-03-29T22:41:25.983Z,8.37
2023-03-29T22:44:14.523Z,10.63
2023-03-29T22:47:03.006Z,7.40
2023-03-29T22:49:51.541Z,11.60
2023-03-29T22:52:40.027Z,10.70
2023-03-29T22:55:29.799Z,12.17
2023-03-29T22:58:18.250Z,12.80
2023-03-29T23:01:07.609Z,6.80
2023-03-29T23:03:56.330Z,8.80
2023-03-29T23:06:44.940Z,8.80
2023-03-29T23:09:33.653Z,9.27
2023-03-29T23:12:24.477Z,7.40
2023-03-29T23:15:13.514Z,10.87
2023-03-29T23:18:02.230Z,15.27
2023-03-29T23:20:52.380Z,8.63
2023-03-29T23:23:41.077Z,11.17
2023-03-29T23:26:29.505Z,9.03
2023-03-29T23:29:19.294Z,12.17
2023-03-29T23:32:08.054Z,8.93
2023-03-29T23:34:56.490Z,8.30
2023-03-29T23:37:45.084Z,9.67
2023-03-29T23:40:33.984Z,10.93
2023-03-29T23:43:22.681Z,9.97
2023-03-29T23:46:14.132Z,13.43
2023-03-29T23:49:03.178Z,7.60
2023-03-29T23:51:51.594Z,11.07
2023-03-29T23:54:40.069Z,10.43
2023-03-29T23:57:28.699Z,11.53
